Time;durP1;ratioP1;P1;durP2;ratioP2;P2;SDS_P1;SDS_P2;PMS_P1;PMS_P2;Temp;Humidity;BMP_temperature;BMP_pressure;BME280_temperature;BME280_humidity;BME280_pressure;Samples;Min_cycle;Max_cycle;Signal;HPM_P1;HPM_P2
2023/03/19 00:00:09;;;;;;;11.33;10.43;;;;;;;0.48;79.82;93280.69;5070940;28;20221;-69
2023/03/19 00:02:35;;;;;;;11.67;10.53;;;;;;;0.66;78.87;93273.13;5071304;28;20192;-69
2023/03/19 00:05:01;;;;;;;10.33;9.50;;;;;;;0.64;78.62;93280.22;5069744;28;20249;-69
2023/03/19 00:07:26;;;;;;;11.13;10.33;;;;;;;0.65;79.11;93275.88;5086684;28;20284;-70
2023/03/19 00:09:52;;;;;;;12.47;11.43;;;;;;;0.61;79.72;93270.34;5070028;28;20222;-70
2023/03/19 00:12:17;;;;;;;10.30;9.70;;;;;;;0.67;79.24;93274.69;5071728;28;20204;-69
2023/03/19 00:14:42;;;;;;;12.70;11.40;;;;;;;0.61;79.16;93260.09;5070231;28;20221;-69
2023/03/19 00:17:08;;;;;;;11.77;10.77;;;;;;;0.61;78.31;93270.34;5071887;28;20470;-70
2023/03/19 00:19:33;;;;;;;11.27;10.47;;;;;;;0.38;78.84;93253.81;5070647;28;20229;-69
2023/03/19 00:21:59;;;;;;;13.97;11.27;;;;;;;0.52;79.29;93271.56;5071384;28;20264;-69
2023/03/19 00:24:25;;;;;;;12.97;11.57;;;;;;;0.66;78.89;93267.97;5070480;28;20217;-70
2023/03/19 00:26:50;;;;;;;11.67;10.70;;;;;;;0.70;79.71;93266.56;5070106;28;20197;-69
2023/03/19 00:29:15;;;;;;;13.67;12.57;;;;;;;0.65;79.59;93260.47;5070348;28;20764;-69
2023/03/19 00:31:41;;;;;;;12.47;11.43;;;;;;;0.60;79.82;93248.25;5070786;28;21001;-69
2023/03/19 00:34:08;;;;;;;15.23;12.63;;;;;;;0.57;79.89;93256.34;5070409;28;20201;-69
2023/03/19 00:36:34;;;;;;;13.43;12.03;;;;;;;0.55;80.08;93255.75;5069122;28;20236;-70
2023/03/19 00:38:59;;;;;;;13.43;12.33;;;;;;;0.61;79.85;93254.94;5069187;28;20197;-69
2023/03/19 00:41:25;;;;;;;12.37;11.47;;;;;;;0.64;79.17;93248.63;5070239;28;20224;-69
2023/03/19 00:43:57;;;;;;;13.17;11.37;;;;;;;0.59;79.26;93256.91;5070469;28;20181;-69
2023/03/19 00:46:24;;;;;;;12.83;11.70;;;;;;;0.50;79.98;93240.16;5068448;28;20237;-70
2023/03/19 00:48:52;;;;;;;12.77;11.73;;;;;;;0.53;79.67;93237.19;5069638;28;20205;-69
2023/03/19 00:51:18;;;;;;;12.37;11.57;;;;;;;0.55;79.66;93239.56;5070195;28;20239;-69
2023/03/19 00:53:44;;;;;;;13.07;11.83;;;;;;;0.50;80.45;93232.47;5070364;28;20185;-69
2023/03/19 00:56:12;;;;;;;12.00;10.87;;;;;;;0.58;81.13;93245.09;5069981;28;20236;-68
2023/03/19 00:58:39;;;;;;;13.90;12.50;;;;;;;0.51;81.30;93228.13;5069010;28;20211;-69
2023/03/19 01:01:07;;;;;;;12.73;11.57;;;;;;;0.61;81.21;93242.09;5069663;28;20282;-69
2023/03/19 01:03:32;;;;;;;13.17;12.17;;;;;;;0.55;81.39;93230.06;5070873;28;20192;-69
2023/03/19 01:05:58;;;;;;;13.33;12.03;;;;;;;0.38;82.18;93223.81;5068411;28;20229;-69
2023/03/19 01:08:23;;;;;;;14.60;13.10;;;;;;;0.48;82.69;93233.66;5070442;28;20193;-69
2023/03/19 01:10:49;;;;;;;14.57;13.33;;;;;;;0.38;81.75;93194.75;5068293;28;20232;-69
2023/03/19 01:13:15;;;;;;;18.87;15.57;;;;;;;0.39;82.03;93217.66;5069057;28;20261;-69
2023/03/19 01:15:41;;;;;;;24.87;16.13;;;;;;;0.36;81.47;93215.50;5069300;28;20224;-69
2023/03/19 01:18:08;;;;;;;19.17;16.77;;;;;;;0.53;80.53;93226.91;5070452;28;20840;-69
2023/03/19 01:20:34;;;;;;;25.20;16.57;;;;;;;0.33;80.98;93215.91;5069373;28;20240;-69
2023/03/19 01:23:00;;;;;;;18.07;14.87;;;;;;;0.39;81.30;93220.25;5070309;28;20940;-69
2023/03/19 01:25:26;;;;;;;17.47;14.57;;;;;;;0.37;81.32;93206.03;5069704;28;20225;-69
2023/03/19 01:27:51;;;;;;;15.57;13.93;;;;;;;0.34;83.09;93221.84;5070043;28;20173;-69
2023/03/19 01:30:17;;;;;;;14.67;13.23;;;;;;;0.26;82.77;93220.28;5068195;28;20300;-69
2023/03/19 01:32:43;;;;;;;13.27;12.07;;;;;;;0.25;83.02;93217.94;5068499;28;20256;-69
2023/03/19 01:35:08;;;;;;;12.00;11.10;;;;;;;0.28;81.60;93208.03;5068950;28;20236;-69
2023/03/19 01:37:35;;;;;;;11.90;11.03;;;;;;;0.28;80.84;93222.66;5069516;28;20217;-70
2023/03/19 01:40:00;;;;;;;11.70;10.90;;;;;;;0.12;81.02;93203.34;5067872;28;20237;-70
2023/03/19 01:42:25;;;;;;;12.03;11.10;;;;;;;0.14;81.06;93219.31;5069325;28;20186;-69
2023/03/19 01:44:51;;;;;;;11.33;10.53;;;;;;;0.25;81.40;93225.63;5068530;28;20236;-69
2023/03/19 01:47:25;;;;;;;11.83;11.10;;;;;;;0.27;81.26;93219.28;5069871;28;20169;-69
2023/03/19 01:49:55;;;;;;;12.80;11.87;;;;;;;0.15;81.77;93207.28;5068410;28;20277;-69
2023/03/19 01:52:24;;;;;;;10.97;10.17;;;;;;;0.20;81.04;93221.09;5069597;28;20217;-70
2023/03/19 01:54:51;;;;;;;11.63;10.83;;;;;;;0.25;80.58;93223.81;5066559;28;20221;-70
2023/03/19 01:57:17;;;;;;;11.33;10.27;;;;;;;0.34;80.19;93226.97;5069042;28;20224;-69
2023/03/19 01:59:47;;;;;;;13.27;12.27;;;;;;;0.36;79.47;93217.31;5068565;28;20269;-70
2023/03/19 02:02:35;;;;;;;13.00;11.90;;;;;;;0.32;79.68;93221.25;5069809;28;20241;-69
2023/03/19 02:05:04;;;;;;;12.30;11.00;;;;;;;0.20;80.22;93221.09;5068333;28;20233;-69
2023/03/19 02:07:34;;;;;;;12.73;11.63;;;;;;;0.26;80.52;93222.88;5069129;28;20201;-70
2023/03/19 02:10:02;;;;;;;12.60;11.40;;;;;;;0.29;81.07;93229.34;5068689;28;20221;-69
2023/03/19 02:12:28;;;;;;;11.73;11.00;;;;;;;0.28;81.08;93223.44;5068554;28;20224;-69
2023/03/19 02:14:53;;;;;;;10.73;10.03;;;;;;;0.21;81.59;93220.09;5067461;28;20301;-70
2023/03/19 02:17:20;;;;;;;10.87;10.07;;;;;;;0.08;82.22;93209.09;5069609;28;20217;-69
2023/03/19 02:20:30;;;;;;;11.40;10.70;;;;;;;0.34;81.41;93226.97;5068624;28;20217;-69
2023/03/19 02:23:20;;;;;;;10.37;9.87;;;;;;;0.18;82.27;93223.06;5068694;28;20219;-69
2023/03/19 02:25:45;;;;;;;11.77;11.07;;;;;;;0.14;83.43;93221.09;5067769;28;20284;-70
2023/03/19 02:28:15;;;;;;;11.37;10.30;;;;;;;-0.08;84.55;93212.84;5068844;28;20201;-70
2023/03/19 02:30:41;;;;;;;11.57;10.60;;;;;;;0.09;84.45;93214.00;5067570;28;20225;-69
2023/03/19 02:33:12;;;;;;;11.80;10.73;;;;;;;0.10;83.15;93225.84;5068734;28;20181;-69
2023/03/19 02:35:37;;;;;;;12.27;11.33;;;;;;;0.05;83.23;93227.44;5066690;28;20213;-69
2023/03/19 02:38:04;;;;;;;12.43;11.30;;;;;;;-0.06;82.50;93213.44;5069197;28;20200;-70
2023/03/19 02:40:35;;;;;;;12.13;11.30;;;;;;;0.03;83.29;93233.56;5067430;28;20217;-69
2023/03/19 02:43:01;;;;;;;11.93;11.13;;;;;;;0.22;81.86;93228.59;5069128;28;20182;-70
2023/03/19 02:45:28;;;;;;;11.90;11.10;;;;;;;0.26;81.10;93230.56;5067715;28;20247;-68
2023/03/19 02:47:54;;;;;;;11.13;10.47;;;;;;;0.13;81.31;93225.44;5068900;28;20205;-69
2023/03/19 02:50:20;;;;;;;11.70;10.97;;;;;;;0.04;81.56;93226.66;5067864;28;20213;-70
2023/03/19 02:52:45;;;;;;;12.27;10.87;;;;;;;0.03;81.26;93227.66;5068749;28;20196;-69
2023/03/19 02:55:11;;;;;;;11.20;10.60;;;;;;;-0.04;82.38;93226.84;5068271;28;20221;-69
2023/03/19 02:57:36;;;;;;;11.37;10.77;;;;;;;-0.01;81.88;93229.81;5068330;28;20359;-69
2023/03/19 03:00:04;;;;;;;12.23;11.13;;;;;;;0.02;80.56;93233.75;5068070;28;20252;-69
2023/03/19 03:02:29;;;;;;;13.23;11.83;;;;;;;0.00;81.39;93228.06;5068656;28;20660;-69
2023/03/19 03:04:55;;;;;;;12.97;12.00;;;;;;;-0.07;81.80;93225.50;5065633;28;20236;-70
2023/03/19 03:07:21;;;;;;;12.07;11.17;;;;;;;0.00;81.82;93231.38;5068966;28;20193;-70
2023/03/19 03:09:46;;;;;;;11.97;11.00;;;;;;;0.06;81.82;93223.88;5066761;28;20237;-69
2023/03/19 03:12:12;;;;;;;10.47;9.83;;;;;;;0.19;80.79;93231.56;5067939;28;20206;-70
2023/03/19 03:14:37;;;;;;;10.77;9.97;;;;;;;0.16;80.46;93227.59;5067248;28;20251;-70
2023/03/19 03:17:03;;;;;;;11.07;10.27;;;;;;;0.21;80.40;93232.94;5067888;28;20220;-69
2023/03/19 03:19:28;;;;;;;10.70;10.00;;;;;;;0.18;80.00;93243.59;5067735;28;20189;-69
2023/03/19 03:21:54;;;;;;;10.93;10.23;;;;;;;0.13;80.86;93240.84;5067806;28;20200;-70
2023/03/19 03:24:19;;;;;;;11.33;10.67;;;;;;;0.10;82.21;93241.25;5067910;28;20208;-70
2023/03/19 03:26:45;;;;;;;11.23;10.63;;;;;;;0.06;83.36;93240.09;5068360;28;20189;-69
2023/03/19 03:29:10;;;;;;;10.63;10.03;;;;;;;0.22;83.53;93249.13;5066979;28;20189;-69
2023/03/19 03:31:36;;;;;;;10.80;10.23;;;;;;;0.18;82.58;93246.16;5068174;28;20216;-69
2023/03/19 03:34:01;;;;;;;10.30;9.80;;;;;;;0.05;82.63;93230.78;5069895;28;20177;-70
2023/03/19 03:36:27;;;;;;;10.13;9.43;;;;;;;0.06;82.67;93245.22;5071368;28;20320;-69
2023/03/19 03:38:53;;;;;;;9.83;9.23;;;;;;;0.03;82.66;93239.69;5070774;28;20241;-69
2023/03/19 03:41:18;;;;;;;11.90;11.00;;;;;;;0.11;82.86;93247.19;5071630;28;20233;-69
2023/03/19 03:43:44;;;;;;;20.30;15.87;;;;;;;0.08;82.92;93234.75;5071532;28;20217;-70
2023/03/19 03:46:09;;;;;;;32.13;16.37;;;;;;;0.04;83.02;93249.75;5071409;28;20244;-69
2023/03/19 03:48:34;;;;;;;13.73;12.47;;;;;;;-0.19;83.12;93239.13;5071704;28;20196;-69
2023/03/19 03:51:02;;;;;;;13.17;12.17;;;;;;;0.00;83.33;93251.16;5071426;28;20228;-69
2023/03/19 03:53:29;;;;;;;12.63;11.57;;;;;;;0.00;82.96;93259.63;5071299;28;20217;-69
2023/03/19 03:55:55;;;;;;;13.27;11.97;;;;;;;-0.05;83.11;93258.66;5071303;28;20245;-69
2023/03/19 03:58:20;;;;;;;15.53;12.53;;;;;;;-0.10;84.62;93255.88;5071903;28;20216;-69
2023/03/19 04:00:46;;;;;;;13.27;11.83;;;;;;;-0.11;85.44;93259.44;5071181;28;20293;-70
2023/03/19 04:03:12;;;;;;;14.13;12.73;;;;;;;-0.02;84.37;93240.28;5071463;28;20257;-69
2023/03/19 04:05:38;;;;;;;12.97;11.77;;;;;;;-0.02;83.93;93245.41;5070322;28;20220;-69
2023/03/19 04:08:04;;;;;;;12.17;11.07;;;;;;;-0.04;83.31;93249.94;5071068;28;20213;-72
2023/03/19 04:10:30;;;;;;;13.33;12.03;;;;;;;-0.16;83.75;93251.53;5069570;28;20229;-73
2023/03/19 04:12:55;;;;;;;15.33;13.93;;;;;;;-0.22;84.29;93244.66;5070994;28;20199;-74
2023/03/19 04:15:21;;;;;;;15.13;13.57;;;;;;;-0.22;84.53;93249.78;5070331;28;20229;-74
2023/03/19 04:17:47;;;;;;;14.53;13.23;;;;;;;-0.26;85.61;93246.00;5071608;28;20209;-74
2023/03/19 04:20:13;;;;;;;14.93;13.50;;;;;;;-0.46;85.70;93224.69;5069703;28;20218;-73
2023/03/19 04:22:38;;;;;;;15.53;13.97;;;;;;;-0.35;85.31;93226.69;5070526;28;20180;-74
2023/03/19 04:25:07;;;;;;;15.03;13.43;;;;;;;-0.32;86.93;93237.34;5066907;28;20229;-74
2023/03/19 04:27:32;;;;;;;16.50;14.67;;;;;;;-0.35;86.89;93253.13;5069533;28;20203;-74
2023/03/19 04:29:58;;;;;;;13.50;12.27;;;;;;;-0.36;86.25;93248.19;5069757;28;20293;-74
2023/03/19 04:32:23;;;;;;;12.70;11.60;;;;;;;-0.06;85.32;93247.59;5069834;28;20186;-74
2023/03/19 04:34:49;;;;;;;11.10;10.40;;;;;;;-0.27;87.31;93254.69;5069559;28;20232;-74
2023/03/19 04:37:14;;;;;;;11.77;10.87;;;;;;;-0.18;87.14;93253.50;5070289;28;20212;-74
2023/03/19 04:39:40;;;;;;;11.60;10.70;;;;;;;-0.15;85.93;93255.69;5069375;28;20229;-74
2023/03/19 04:42:05;;;;;;;10.83;10.23;;;;;;;-0.24;85.54;93249.97;5068140;28;20215;-74
2023/03/19 04:44:31;;;;;;;10.63;9.93;;;;;;;-0.19;85.09;93241.69;5068802;28;20292;-74
2023/03/19 04:46:57;;;;;;;11.23;10.50;;;;;;;-0.04;83.82;93267.91;5069952;28;20209;-74
2023/03/19 04:49:26;;;;;;;11.20;10.50;;;;;;;-0.07;83.62;93250.34;5069748;28;20208;-74
2023/03/19 04:51:51;;;;;;;12.10;11.33;;;;;;;-0.02;83.15;93248.75;5069659;28;20224;-75
2023/03/19 04:54:17;;;;;;;11.20;10.50;;;;;;;0.13;82.88;93258.00;5069178;28;20174;-74
2023/03/19 04:56:43;;;;;;;10.20;9.60;;;;;;;0.13;83.85;93256.25;5069956;28;20266;-74
2023/03/19 04:59:09;;;;;;;11.70;10.97;;;;;;;0.16;83.47;93255.84;5069221;28;20220;-75
2023/03/19 05:01:35;;;;;;;10.30;9.70;;;;;;;0.24;83.78;93257.41;5068695;28;20232;-76
2023/03/19 05:04:01;;;;;;;28.47;27.07;;;;;;;0.30;83.89;93257.41;5067965;28;20197;-75
2023/03/19 05:06:26;;;;;;;10.07;9.50;;;;;;;0.41;83.77;93254.22;5069100;28;20233;-74
2023/03/19 05:08:52;;;;;;;11.03;10.33;;;;;;;0.35;82.79;93236.25;5069986;28;20244;-76
2023/03/19 05:11:17;;;;;;;10.73;9.93;;;;;;;0.46;81.74;93244.13;5070047;28;20222;-76
2023/03/19 05:13:43;;;;;;;10.83;10.13;;;;;;;0.78;80.79;93270.72;5068484;28;20177;-72
2023/03/19 05:16:09;;;;;;;10.53;9.77;;;;;;;0.62;81.01;93233.44;5068234;28;20237;-73
2023/03/19 05:18:34;;;;;;;11.37;10.57;;;;;;;0.94;80.79;93260.75;5067210;28;20186;-73
2023/03/19 05:21:00;;;;;;;11.47;10.70;;;;;;;1.00;79.93;93262.50;5067578;28;20244;-69
2023/03/19 05:23:25;;;;;;;12.50;11.43;;;;;;;0.95;80.66;93253.84;5067778;28;20702;-68
2023/03/19 05:25:51;;;;;;;12.20;11.13;;;;;;;1.05;80.98;93264.47;5066058;28;20229;-67
2023/03/19 05:28:17;;;;;;;10.77;9.90;;;;;;;1.15;80.65;93257.09;5068858;28;20193;-69
2023/03/19 05:30:43;;;;;;;10.60;9.90;;;;;;;1.20;80.89;93252.13;5067891;28;20221;-70
2023/03/19 05:33:08;;;;;;;10.20;9.57;;;;;;;1.34;80.10;93262.13;5068191;28;20248;-70
2023/03/19 05:35:37;;;;;;;11.30;10.47;;;;;;;1.47;80.02;93258.69;5064935;28;20236;-68
2023/03/19 05:38:02;;;;;;;11.73;10.83;;;;;;;1.71;78.38;93257.94;5068644;28;20193;-70
2023/03/19 05:40:28;;;;;;;12.37;11.33;;;;;;;1.78;77.84;93256.09;5067189;28;20304;-68
2023/03/19 05:42:54;;;;;;;15.67;13.37;;;;;;;2.03;74.42;93251.75;5068307;28;20189;-67
2023/03/19 05:45:19;;;;;;;29.93;17.93;;;;;;;2.14;73.95;93265.72;5068358;28;20252;-68
2023/03/19 05:47:48;;;;;;;24.20;16.77;;;;;;;2.17;73.97;93262.72;5067350;28;20194;-68
2023/03/19 05:50:15;;;;;;;21.07;16.63;;;;;;;1.98;75.38;93264.47;5067507;28;20256;-68
2023/03/19 05:52:41;;;;;;;24.87;16.73;;;;;;;1.87;75.18;93264.38;5068825;28;20204;-67
2023/03/19 05:55:07;;;;;;;16.40;14.73;;;;;;;2.02;75.15;93269.97;5067378;28;20337;-68
2023/03/19 05:57:32;;;;;;;19.00;14.47;;;;;;;2.05;75.51;93264.41;5066388;28;20217;-68
2023/03/19 05:59:57;;;;;;;15.23;13.33;;;;;;;2.10;76.66;93280.03;5065252;28;20243;-67
2023/03/19 06:02:23;;;;;;;14.10;12.70;;;;;;;1.91;76.83;93273.25;5068001;28;20193;-67
2023/03/19 06:04:48;;;;;;;14.67;13.30;;;;;;;2.13;75.81;93269.31;5064924;28;20237;-68
2023/03/19 06:07:14;;;;;;;15.00;13.70;;;;;;;2.28;75.12;93272.31;5067112;28;20222;-68
2023/03/19 06:09:40;;;;;;;15.53;14.03;;;;;;;2.22;74.61;93273.97;5066525;28;20221;-66
2023/03/19 06:12:06;;;;;;;13.63;12.33;;;;;;;2.11;75.52;93266.94;5067459;28;20193;-68
2023/03/19 06:14:31;;;;;;;14.47;13.03;;;;;;;2.11;75.80;93274.66;5066478;28;20243;-68
2023/03/19 06:16:57;;;;;;;14.17;12.77;;;;;;;2.00;75.50;93247.03;5067311;28;20221;-68
2023/03/19 06:19:22;;;;;;;13.87;12.87;;;;;;;2.34;74.94;93279.19;5063426;28;20189;-71
2023/03/19 06:21:48;;;;;;;12.27;11.37;;;;;;;2.44;73.48;93262.28;5067181;28;20185;-69
2023/03/19 06:24:13;;;;;;;14.33;13.03;;;;;;;2.38;73.42;93265.69;5066284;28;20249;-69
2023/03/19 06:26:38;;;;;;;12.00;11.00;;;;;;;2.34;74.24;93277.44;5067543;28;20185;-69
2023/03/19 06:29:04;;;;;;;14.73;13.07;;;;;;;2.53;74.02;93273.09;5065236;28;20198;-68
2023/03/19 06:31:29;;;;;;;12.30;11.30;;;;;;;2.58;73.75;93275.81;5066630;28;20239;-68
2023/03/19 06:33:55;;;;;;;13.97;12.77;;;;;;;2.58;74.39;93270.66;5067782;28;20207;-69
2023/03/19 06:36:20;;;;;;;13.03;11.87;;;;;;;2.96;72.33;93287.50;5066358;28;20285;-69
2023/03/19 06:38:46;;;;;;;13.20;11.77;;;;;;;2.87;73.06;93293.94;5066565;28;20200;-69
2023/03/19 06:41:11;;;;;;;13.73;12.47;;;;;;;2.93;73.04;93294.84;5067004;28;20220;-69
2023/03/19 06:43:40;;;;;;;13.03;11.73;;;;;;;3.14;72.22;93292.63;5065509;28;20189;-68
2023/03/19 06:46:09;;;;;;;13.47;12.27;;;;;;;3.37;71.74;93289.38;5065977;28;20237;-69
2023/03/19 06:48:35;;;;;;;13.37;12.37;;;;;;;3.55;69.51;93298.88;5065354;28;20189;-67
2023/03/19 06:51:00;;;;;;;13.23;11.97;;;;;;;3.48;69.34;93296.38;5066399;28;20233;-68
2023/03/19 06:53:27;;;;;;;12.63;11.80;;;;;;;3.32;71.46;93307.31;5066746;28;20178;-67
2023/03/19 06:55:53;;;;;;;14.03;13.03;;;;;;;3.67;69.67;93308.25;5064522;28;22089;-67
2023/03/19 06:58:18;;;;;;;13.03;12.13;;;;;;;3.72;69.12;93310.16;5066774;28;20204;-70
2023/03/19 07:00:44;;;;;;;13.27;11.90;;;;;;;3.53;71.02;93322.34;5065187;28;20217;-70
2023/03/19 07:03:09;;;;;;;12.43;11.63;;;;;;;3.73;68.29;93312.53;5068052;28;20186;-71
2023/03/19 07:05:35;;;;;;;11.93;11.03;;;;;;;3.87;68.15;93319.09;5066288;28;20239;-69
2023/03/19 07:08:01;;;;;;;12.03;11.03;;;;;;;3.66;68.03;93316.22;5065062;28;20258;-70
2023/03/19 07:10:26;;;;;;;11.83;10.83;;;;;;;3.71;68.90;93306.78;5070524;28;20311;-74
2023/03/19 07:12:52;;;;;;;12.47;11.57;;;;;;;3.78;68.94;93319.63;5067443;28;20197;-71
2023/03/19 07:15:19;;;;;;;12.10;10.93;;;;;;;4.37;66.38;93320.28;5068175;28;20240;-70
2023/03/19 07:17:47;;;;;;;12.67;11.67;;;;;;;4.51;65.27;93320.88;5070588;28;20215;-71
2023/03/19 07:20:14;;;;;;;13.00;12.00;;;;;;;4.66;64.76;93324.59;5069658;28;20315;-70
2023/03/19 07:22:39;;;;;;;14.33;13.23;;;;;;;4.59;64.40;93313.56;5066614;28;20185;-72
2023/03/19 07:25:06;;;;;;;12.40;11.57;;;;;;;4.66;65.09;93324.59;5067904;28;20258;-70
2023/03/19 07:27:31;;;;;;;12.30;11.40;;;;;;;4.88;63.92;93312.69;5070245;28;20190;-69
2023/03/19 07:29:57;;;;;;;13.83;12.70;;;;;;;4.68;64.23;93312.25;5067507;28;20258;-72
2023/03/19 07:32:22;;;;;;;12.40;11.43;;;;;;;4.62;64.11;93307.94;5070804;28;20186;-72
2023/03/19 07:34:48;;;;;;;15.03;13.50;;;;;;;5.15;63.61;93317.34;5070370;28;20245;-72
2023/03/19 07:37:14;;;;;;;13.57;12.47;;;;;;;4.84;65.76;93303.00;5070186;28;20282;-71
2023/03/19 07:39:39;;;;;;;13.57;12.37;;;;;;;5.12;63.14;93308.22;5070408;28;20233;-72
2023/03/19 07:42:05;;;;;;;15.17;13.77;;;;;;;5.20;63.46;93309.69;5069463;28;20197;-73
2023/03/19 07:44:31;;;;;;;15.07;13.23;;;;;;;5.20;62.79;93301.94;5070661;28;20237;-72
2023/03/19 07:46:56;;;;;;;14.40;13.10;;;;;;;5.32;62.92;93302.69;5069855;28;20197;-72
2023/03/19 07:49:22;;;;;;;15.67;13.93;;;;;;;5.48;63.38;93315.69;5071535;28;20197;-72
2023/03/19 07:51:48;;;;;;;15.70;13.50;;;;;;;5.37;63.29;93326.09;5071065;28;20244;-72
2023/03/19 07:54:14;;;;;;;14.20;12.70;;;;;;;5.12;63.90;93323.00;5069827;28;20700;-71
2023/03/19 07:56:39;;;;;;;14.93;13.63;;;;;;;5.15;64.64;93328.50;5068736;28;20201;-71
2023/03/19 07:59:04;;;;;;;15.00;13.53;;;;;;;5.49;63.49;93321.66;5069927;28;20217;-71
2023/03/19 08:01:30;;;;;;;14.50;13.03;;;;;;;5.29;64.17;93319.47;5068176;28;20218;-72
2023/03/19 08:03:55;;;;;;;15.53;13.57;;;;;;;5.55;62.84;93333.69;5072267;28;20224;-72
2023/03/19 08:06:21;;;;;;;14.70;13.47;;;;;;;5.57;62.00;93329.84;5102661;28;20213;-72
2023/03/19 08:08:46;;;;;;;17.20;13.93;;;;;;;5.43;62.62;93327.75;5072125;28;20201;-72
2023/03/19 08:11:11;;;;;;;13.73;12.43;;;;;;;5.83;62.07;93323.38;5071336;28;20331;-72
2023/03/19 08:13:37;;;;;;;15.87;14.43;;;;;;;5.95;60.23;93316.31;5070646;28;20204;-72
2023/03/19 08:16:02;;;;;;;16.57;14.93;;;;;;;5.96;60.05;93329.03;5070913;28;20217;-72
2023/03/19 08:18:28;;;;;;;14.57;13.23;;;;;;;5.86;61.18;93325.50;5071407;28;20190;-71
2023/03/19 08:20:53;;;;;;;15.43;13.93;;;;;;;5.99;60.33;93322.63;5070135;28;20252;-72
2023/03/19 08:23:19;;;;;;;18.27;13.40;;;;;;;6.15;60.39;93335.59;5070182;28;20189;-71
2023/03/19 08:25:44;;;;;;;15.27;13.87;;;;;;;6.26;59.76;93315.81;5071446;28;20229;-72
2023/03/19 08:28:10;;;;;;;15.13;13.60;;;;;;;6.56;60.64;93331.88;5068029;28;20209;-72
2023/03/19 08:30:36;;;;;;;16.83;15.10;;;;;;;6.61;58.74;93334.53;5069382;28;20224;-71
2023/03/19 08:33:02;;;;;;;15.80;14.30;;;;;;;6.23;62.65;93324.06;5069942;28;20201;-78
2023/03/19 08:35:28;;;;;;;16.10;14.63;;;;;;;6.65;58.42;93322.66;5070278;28;20245;-77
2023/03/19 08:37:54;;;;;;;15.00;13.07;;;;;;;6.46;60.44;93321.31;5070608;28;20225;-78
2023/03/19 08:40:20;;;;;;;15.40;14.00;;;;;;;6.40;61.28;93327.44;5070377;28;20221;-78
2023/03/19 08:42:45;;;;;;;15.37;13.90;;;;;;;6.43;60.24;93301.03;5069372;28;20185;-79
2023/03/19 08:45:13;;;;;;;15.47;13.87;;;;;;;6.68;58.93;93329.97;5069906;28;20244;-77
2023/03/19 08:47:39;;;;;;;16.30;14.27;;;;;;;6.82;57.82;93326.03;5070495;28;20232;-78
2023/03/19 08:50:05;;;;;;;17.47;13.27;;;;;;;6.98;58.37;93317.44;5070466;28;20226;-78
2023/03/19 08:52:30;;;;;;;15.90;14.23;;;;;;;7.11;59.63;93317.09;5070448;28;20189;-78
2023/03/19 08:54:56;;;;;;;23.43;15.07;;;;;;;7.27;57.38;93298.09;5070087;28;20233;-78
2023/03/19 08:57:21;;;;;;;15.57;13.10;;;;;;;7.12;57.50;93300.50;5069393;28;20209;-78
2023/03/19 08:59:47;;;;;;;15.97;14.27;;;;;;;7.37;57.26;93306.00;5068547;28;20252;-73
2023/03/19 09:02:13;;;;;;;15.57;14.20;;;;;;;7.16;57.10;93306.75;5070568;28;20189;-73
2023/03/19 09:04:44;;;;;;;20.70;15.00;;;;;;;7.04;60.94;93306.09;5069699;28;20285;-72
2023/03/19 09:07:12;;;;;;;17.07;14.60;;;;;;;7.18;58.00;93294.34;5069673;28;20189;-73
2023/03/19 09:09:38;;;;;;;16.07;14.47;;;;;;;7.22;58.10;93299.84;5068851;28;20233;-72
2023/03/19 09:12:06;;;;;;;18.77;14.37;;;;;;;7.40;56.90;93295.13;5069221;28;20189;-72
2023/03/19 09:14:31;;;;;;;15.67;14.10;;;;;;;7.42;57.15;93294.88;5069990;28;20364;-72
2023/03/19 09:16:57;;;;;;;16.17;14.63;;;;;;;7.62;56.93;93295.91;5070087;28;20225;-72
2023/03/19 09:19:22;;;;;;;15.20;13.60;;;;;;;7.59;58.08;93288.59;5070107;28;20208;-72
2023/03/19 09:21:49;;;;;;;16.00;14.33;;;;;;;7.68;56.96;93300.13;5069412;28;20205;-72
2023/03/19 09:24:14;;;;;;;16.17;14.43;;;;;;;7.83;56.44;93307.28;5069850;28;20253;-73
2023/03/19 09:26:40;;;;;;;16.57;14.87;;;;;;;7.85;56.28;93306.03;5069492;28;21204;-72
2023/03/19 09:29:05;;;;;;;15.37;13.77;;;;;;;8.02;55.89;93298.94;5085663;28;20463;-72
2023/03/19 09:31:31;;;;;;;15.47;13.87;;;;;;;8.16;55.55;93297.50;5049693;28;20313;-73
2023/03/19 09:33:56;;;;;;;20.57;15.27;;;;;;;8.06;54.96;93305.19;5049669;28;20769;-72
2023/03/19 09:36:22;;;;;;;16.20;14.67;;;;;;;8.16;55.01;93307.09;5067480;28;20237;-72
2023/03/19 09:38:47;;;;;;;18.90;14.20;;;;;;;8.06;55.52;93301.81;5069624;28;20247;-73
2023/03/19 09:41:19;;;;;;;17.00;15.33;;;;;;;8.19;55.56;93302.19;5068925;28;20237;-72
2023/03/19 09:44:01;;;;;;;16.60;14.73;;;;;;;8.07;55.26;93296.38;5069478;28;20242;-72
2023/03/19 09:46:52;;;;;;;15.93;14.47;;;;;;;8.25;56.00;93303.03;5068090;28;20264;-73
2023/03/19 09:49:25;;;;;;;17.17;15.57;;;;;;;8.40;53.83;93297.19;5070073;28;20645;-72
2023/03/19 09:51:52;;;;;;;15.90;14.40;;;;;;;8.46;54.79;93299.59;5068401;28;20177;-72
2023/03/19 09:54:26;;;;;;;15.97;14.27;;;;;;;8.66;52.66;93297.16;5069258;28;20169;-72
2023/03/19 09:56:52;;;;;;;17.10;15.43;;;;;;;8.91;51.91;93294.72;5068334;28;20205;-72
2023/03/19 09:59:21;;;;;;;15.30;13.80;;;;;;;9.09;51.15;93290.94;5069190;28;20220;-72
2023/03/19 10:01:56;;;;;;;15.80;14.17;;;;;;;8.83;52.41;93286.56;5067899;28;20182;-72
2023/03/19 10:04:25;;;;;;;16.10;14.63;;;;;;;8.86;51.99;93284.25;5068365;28;20185;-72
2023/03/19 10:07:02;;;;;;;19.23;14.93;;;;;;;8.94;53.69;93278.59;5069156;28;20208;-73
2023/03/19 10:09:31;;;;;;;17.13;15.43;;;;;;;9.19;50.06;93286.53;5068361;28;20185;-73
2023/03/19 10:12:17;;;;;;;15.60;14.20;;;;;;;9.10;50.28;93280.25;5068337;28;20193;-73
2023/03/19 10:14:43;;;;;;;23.43;14.83;;;;;;;9.08;51.62;93278.91;5067840;28;20228;-72
2023/03/19 10:17:16;;;;;;;20.00;15.57;;;;;;;9.18;51.17;93271.16;5068804;28;20223;-70
2023/03/19 10:19:48;;;;;;;18.63;16.23;;;;;;;9.31;49.09;93278.50;5068382;28;20236;-71
2023/03/19 10:22:36;;;;;;;16.37;14.80;;;;;;;9.30;49.83;93275.13;5068744;28;20264;-71
2023/03/19 10:25:02;;;;;;;18.37;15.07;;;;;;;9.39;48.54;93265.00;5067075;28;20364;-72
2023/03/19 10:27:28;;;;;;;17.63;15.90;;;;;;;9.70;48.87;93264.84;5067327;28;20185;-70
2023/03/19 10:29:55;;;;;;;18.43;16.67;;;;;;;9.80;51.01;93259.66;5068087;28;20255;-74
2023/03/19 10:32:36;;;;;;;17.63;15.73;;;;;;;10.12;48.27;93250.88;5068400;28;20189;-73
2023/03/19 10:35:08;;;;;;;18.37;16.47;;;;;;;10.10;48.38;93248.50;5068523;28;20287;-73
2023/03/19 10:37:35;;;;;;;16.93;15.13;;;;;;;9.92;48.28;93249.00;5067630;28;20205;-72
2023/03/19 10:40:01;;;;;;;20.27;15.63;;;;;;;9.97;48.53;93250.81;5066535;28;20237;-72
2023/03/19 10:42:45;;;;;;;15.57;14.13;;;;;;;9.99;46.24;93249.53;5065423;28;20265;-73
2023/03/19 10:45:14;;;;;;;16.87;15.30;;;;;;;10.11;47.90;93241.47;5069992;28;20952;-72
2023/03/19 10:47:42;;;;;;;19.87;16.03;;;;;;;10.17;47.64;93237.81;5071260;28;21239;-73
2023/03/19 10:50:16;;;;;;;21.17;16.30;;;;;;;10.32;47.05;93237.84;5070071;28;20228;-72
2023/03/19 10:52:42;;;;;;;17.27;15.50;;;;;;;10.61;47.49;93224.00;5071816;28;20185;-71
2023/03/19 10:55:15;;;;;;;17.53;15.67;;;;;;;10.68;45.73;93226.31;5072228;28;20209;-72
2023/03/19 10:57:43;;;;;;;18.43;16.47;;;;;;;10.52;46.28;93217.72;5068538;28;20239;-72
2023/03/19 11:00:21;;;;;;;16.63;15.00;;;;;;;10.35;47.10;93217.22;5070710;28;20230;-71
2023/03/19 11:02:52;;;;;;;17.97;15.80;;;;;;;10.54;46.34;93220.88;5070894;28;20189;-69
2023/03/19 11:05:21;;;;;;;18.47;16.67;;;;;;;10.26;48.31;93197.91;5070525;28;20236;-71
2023/03/19 11:07:54;;;;;;;15.87;14.23;;;;;;;10.77;45.66;93199.41;5067476;28;20246;-69
2023/03/19 11:10:21;;;;;;;16.37;14.63;;;;;;;10.92;44.65;93196.78;5070013;28;20259;-75
2023/03/19 11:12:53;;;;;;;20.37;16.57;;;;;;;10.73;45.59;93159.22;5070335;28;20186;-77
2023/03/19 11:15:22;;;;;;;16.47;14.77;;;;;;;10.95;45.15;93183.19;5069889;28;20230;-73
2023/03/19 11:17:56;;;;;;;16.77;14.67;;;;;;;11.18;43.81;93190.41;5068177;28;20284;-72
2023/03/19 11:20:33;;;;;;;18.27;14.93;;;;;;;11.16;44.13;93183.88;5070542;28;20245;-73
2023/03/19 11:23:01;;;;;;;15.83;14.13;;;;;;;11.09;44.03;93175.56;5071283;28;20245;-73